createdAt,value
2018-01-15T00:00:38.866Z,38.59
2018-01-15T00:01:38.858Z,37.74
2018-01-15T00:02:38.869Z,38.12
2018-01-15T00:03:38.863Z,39.35
2018-01-15T00:04:38.864Z,39.42
2018-01-15T00:05:38.869Z,39.04
2018-01-15T00:06:38.870Z,38.76
2018-01-15T00:07:38.871Z,38.67
2018-01-15T00:08:38.881Z,39.04
2018-01-15T00:09:38.881Z,39.14
2018-01-15T00:10:38.881Z,38.10
2018-01-15T00:11:38.892Z,36.69
2018-01-15T00:12:38.885Z,35.95
2018-01-15T00:13:38.892Z,35.76
2018-01-15T00:14:38.889Z,35.95
2018-01-15T00:15:38.896Z,36.61
2018-01-15T00:16:38.902Z,37.55
2018-01-15T00:17:38.901Z,37.84
2018-01-15T00:18:38.897Z,38.78
2018-01-15T00:19:38.901Z,38.78
2018-01-15T00:20:38.908Z,38.68
2018-01-15T00:21:38.911Z,39.06
2018-01-15T00:22:38.914Z,39.89
2018-01-15T00:23:38.913Z,40.46
2018-01-15T00:24:38.918Z,40.48
2018-01-15T00:25:38.916Z,40.46
2018-01-15T00:26:38.923Z,41.31
2018-01-15T00:27:38.926Z,41.50
2018-01-15T00:28:38.921Z,41.12
2018-01-15T00:29:38.931Z,40.08
2018-01-15T00:30:38.929Z,39.32
2018-01-15T00:31:38.935Z,40.08
2018-01-15T00:32:38.938Z,40.65
2018-01-15T00:33:38.940Z,40.46
2018-01-15T00:34:38.946Z,39.32
2018-01-15T00:35:38.946Z,38.29
2018-01-15T00:36:38.942Z,38.29
2018-01-15T00:37:38.945Z,37.63
2018-01-15T00:38:38.952Z,37.63
2018-01-15T00:39:38.954Z,38.48
2018-01-15T00:40:38.957Z,38.76
2018-01-15T00:41:38.953Z,38.85
2018-01-15T00:42:38.956Z,38.76
2018-01-15T00:43:38.965Z,38.48
2018-01-15T00:44:38.966Z,38.29
2018-01-15T00:45:38.963Z,38.57
2018-01-15T00:46:38.972Z,38.57
2018-01-15T00:47:38.975Z,39.04
2018-01-15T00:48:38.972Z,39.51
2018-01-15T00:49:38.979Z,40.36
2018-01-15T00:50:38.982Z,40.36
2018-01-15T00:51:38.978Z,40.27
2018-01-15T00:52:38.986Z,40.27
2018-01-15T00:53:38.983Z,40.46
2018-01-15T00:54:38.986Z,41.40
2018-01-15T00:55:38.994Z,41.31
2018-01-15T00:56:38.995Z,40.84
2018-01-15T00:57:38.998Z,40.36
2018-01-15T00:58:38.995Z,40.65
2018-01-15T00:59:39.004Z,40.55
2018-01-15T01:00:39.000Z,40.46
2018-01-15T01:01:39.007Z,40.46
2018-01-15T01:02:39.010Z,40.46
2018-01-15T01:03:39.009Z,40.84
2018-01-15T01:04:39.016Z,41.78
2018-01-15T01:05:39.017Z,41.40
2018-01-15T01:06:39.017Z,40.55
2018-01-15T01:07:39.021Z,39.89
2018-01-15T01:08:39.023Z,38.85
2018-01-15T01:09:39.025Z,38.10
2018-01-15T01:10:39.024Z,37.82
2018-01-15T01:11:39.027Z,39.42
2018-01-15T01:12:39.033Z,40.46
2018-01-15T01:13:39.036Z,40.93
2018-01-15T01:14:39.033Z,40.74
2018-01-15T01:15:39.036Z,40.36
2018-01-15T01:16:39.037Z,40.27
2018-01-15T01:17:39.046Z,40.46
2018-01-15T01:18:39.042Z,41.31
2018-01-15T01:19:39.052Z,42.07
2018-01-15T01:20:39.054Z,42.16
2018-01-15T01:21:39.050Z,42.16
2018-01-15T01:22:39.057Z,41.69
2018-01-15T01:23:39.057Z,41.69
2018-01-15T01:24:39.062Z,40.93
2018-01-15T01:25:39.065Z,40.93
2018-01-15T01:26:39.067Z,40.46
2018-01-15T01:27:39.069Z,40.08
2018-01-15T01:28:39.072Z,39.61
2018-01-15T01:29:39.070Z,40.08
2018-01-15T01:30:39.072Z,40.65
2018-01-15T01:31:39.074Z,41.03
2018-01-15T01:32:39.080Z,40.74
2018-01-15T01:33:39.083Z,40.93
2018-01-15T01:34:39.086Z,41.03
2018-01-15T01:35:39.088Z,40.93
2018-01-15T01:36:39.085Z,41.50
2018-01-15T01:37:39.092Z,41.97
2018-01-15T01:38:39.092Z,42.25
2018-01-15T01:39:39.094Z,42.72
2018-01-15T01:40:39.095Z,42.35
2018-01-15T01:41:39.103Z,42.25
2018-01-15T01:42:39.105Z,41.69
2018-01-15T01:43:39.108Z,41.97
2018-01-15T01:44:39.103Z,41.88
2018-01-15T01:45:39.111Z,41.88
2018-01-15T01:46:39.113Z,42.63
2018-01-15T01:47:39.116Z,42.82
2018-01-15T01:48:39.113Z,43.01
2018-01-15T01:49:39.120Z,42.63
2018-01-15T01:50:39.126Z,42.91
2018-01-15T01:51:39.125Z,42.91
2018-01-15T01:52:39.131Z,42.35
2018-01-15T01:53:39.124Z,41.88
2018-01-15T01:54:39.126Z,41.97
2018-01-15T01:55:39.128Z,42.35
2018-01-15T01:56:39.136Z,41.88
2018-01-15T01:57:39.131Z,41.59
2018-01-15T01:58:39.139Z,41.59
2018-01-15T01:59:39.141Z,42.35
2018-01-15T02:00:39.138Z,42.07
2018-01-15T02:01:39.146Z,42.25
2018-01-15T02:02:39.143Z,42.35
2018-01-15T02:03:39.151Z,41.88
2018-01-15T02:04:39.151Z,41.97
2018-01-15T02:05:39.148Z,42.91
2018-01-15T02:06:39.157Z,42.63
2018-01-15T02:07:39.159Z,43.10
2018-01-15T02:08:39.159Z,43.19
2018-01-15T02:09:39.162Z,42.35
2018-01-15T02:10:39.165Z,41.88
2018-01-15T02:11:39.162Z,42.44
2018-01-15T02:12:39.168Z,43.29
2018-01-15T02:13:39.171Z,43.10
2018-01-15T02:14:39.174Z,43.01
2018-01-15T02:15:39.170Z,42.91
2018-01-15T02:16:39.177Z,42.16
2018-01-15T02:17:39.180Z,42.07
2018-01-15T02:18:39.178Z,42.44
2018-01-15T02:19:39.179Z,42.07
2018-01-15T02:20:39.181Z,42.25
2018-01-15T02:21:39.189Z,42.35
2018-01-15T02:22:39.187Z,41.97
2018-01-15T02:23:39.194Z,42.25
2018-01-15T02:24:39.195Z,42.44
2018-01-15T02:25:39.199Z,43.01
2018-01-15T02:26:39.196Z,42.54
2018-01-15T02:27:39.197Z,42.82
2018-01-15T02:28:39.207Z,42.82
2018-01-15T02:29:39.201Z,42.91
2018-01-15T02:30:39.203Z,42.25
2018-01-15T02:31:39.210Z,41.78
2018-01-15T02:32:39.206Z,40.84
2018-01-15T02:33:39.210Z,41.50
2018-01-15T02:34:39.213Z,41.59
2018-01-15T02:35:39.220Z,40.36
2018-01-15T02:36:39.217Z,39.70
2018-01-15T02:37:39.217Z,39.61
2018-01-15T02:38:39.223Z,40.08
2018-01-15T02:39:39.222Z,40.36
2018-01-15T02:40:39.230Z,40.18
2018-01-15T02:41:39.228Z,39.80
2018-01-15T02:42:39.235Z,39.42
2018-01-15T02:43:39.237Z,39.32
2018-01-15T02:44:39.234Z,38.57
2018-01-15T02:45:39.235Z,38.39
2018-01-15T02:46:39.244Z,38.57
2018-01-15T02:47:39.239Z,38.78
2018-01-15T02:48:39.241Z,38.78
2018-01-15T02:49:39.247Z,39.35
2018-01-15T02:50:39.245Z,40.58
2018-01-15T02:51:39.248Z,40.55
2018-01-15T02:52:39.255Z,39.89
2018-01-15T02:53:39.255Z,39.61
2018-01-15T02:54:39.254Z,39.51
2018-01-15T02:55:39.263Z,38.97
2018-01-15T02:56:39.261Z,40.10
2018-01-15T02:57:39.258Z,40.27
2018-01-15T02:58:39.262Z,40.55
2018-01-15T02:59:39.263Z,40.86
2018-01-15T03:00:39.264Z,41.22
2018-01-15T03:01:39.272Z,41.69
2018-01-15T03:02:39.276Z,42.72
2018-01-15T03:03:39.279Z,43.76
2018-01-15T03:04:39.271Z,43.57
2018-01-15T03:05:39.280Z,44.61
2018-01-15T03:06:39.278Z,44.89
2018-01-15T03:07:39.278Z,44.51
2018-01-15T03:08:39.280Z,44.51
2018-01-15T03:09:39.282Z,43.66
2018-01-15T03:10:39.284Z,42.72
2018-01-15T03:11:39.286Z,42.44
2018-01-15T03:12:39.288Z,42.63
2018-01-15T03:13:39.289Z,42.91
2018-01-15T03:14:39.291Z,43.29
2018-01-15T03:15:39.298Z,43.95
2018-01-15T03:16:39.295Z,44.32
2018-01-15T03:17:39.297Z,44.42
2018-01-15T03:18:39.299Z,44.80
2018-01-15T03:19:39.303Z,45.08
2018-01-15T03:20:39.304Z,45.46
2018-01-15T03:21:39.310Z,45.93
2018-01-15T03:22:39.308Z,45.84
2018-01-15T03:23:39.316Z,45.84
2018-01-15T03:24:39.318Z,46.31
2018-01-15T03:25:39.319Z,46.31
2018-01-15T03:26:39.323Z,45.84
2018-01-15T03:27:39.318Z,45.74
2018-01-15T03:28:39.323Z,46.97
2018-01-15T03:29:39.323Z,47.16
2018-01-15T03:30:39.332Z,46.97
2018-01-15T03:31:39.327Z,47.72
2018-01-15T03:32:39.335Z,46.88
2018-01-15T03:33:39.336Z,46.59
2018-01-15T03:34:39.337Z,46.50
2018-01-15T03:35:39.334Z,46.59
2018-01-15T03:36:39.338Z,46.40
2018-01-15T03:37:39.344Z,46.69
2018-01-15T03:38:39.348Z,46.31
2018-01-15T03:39:39.343Z,46.97
2018-01-15T03:40:39.350Z,47.63
2018-01-15T03:41:39.346Z,46.97
2018-01-15T03:42:39.355Z,46.78
2018-01-15T03:43:39.357Z,46.22
2018-01-15T03:44:39.399Z,46.59
2018-01-15T03:45:39.356Z,46.69
2018-01-15T03:46:39.364Z,47.06
2018-01-15T03:47:39.365Z,47.25
2018-01-15T03:48:39.362Z,46.88
2018-01-15T03:49:39.372Z,47.25
2018-01-15T03:50:39.372Z,47.16
2018-01-15T03:51:39.377Z,46.88
2018-01-15T03:52:39.377Z,47.06
2018-01-15T03:53:39.379Z,46.97
2018-01-15T03:54:39.380Z,47.25
2018-01-15T03:55:39.378Z,47.72
2018-01-15T03:56:39.384Z,47.44
2018-01-15T03:57:39.388Z,47.44
2018-01-15T03:58:39.384Z,47.53
2018-01-15T03:59:39.393Z,47.81
2018-01-15T04:00:39.433Z,48.00
2018-01-15T04:01:39.392Z,47.81
2018-01-15T04:02:39.390Z,47.81
2018-01-15T04:03:39.397Z,46.78
2018-01-15T04:04:39.400Z,44.42
2018-01-15T04:05:39.401Z,41.88
2018-01-15T04:06:39.404Z,41.97
2018-01-15T04:07:39.405Z,42.72
2018-01-15T04:08:39.410Z,42.44
2018-01-15T04:09:39.410Z,41.88
2018-01-15T04:10:39.412Z,43.01
2018-01-15T04:11:39.410Z,42.72
2018-01-15T04:12:39.415Z,41.78
2018-01-15T04:13:39.417Z,40.93
2018-01-15T04:14:39.414Z,40.18
2018-01-15T04:15:39.418Z,40.27
2018-01-15T04:16:39.418Z,40.84
2018-01-15T04:17:39.427Z,41.22
2018-01-15T04:18:39.429Z,41.69
2018-01-15T04:19:39.428Z,41.97
2018-01-15T04:20:39.424Z,41.88
2018-01-15T04:21:39.427Z,41.97
2018-01-15T04:22:39.428Z,41.59
2018-01-15T04:23:39.436Z,41.88
2018-01-15T04:24:39.431Z,41.97
2018-01-15T04:25:39.439Z,42.91
2018-01-15T04:26:39.441Z,44.14
2018-01-15T04:27:39.451Z,43.85
2018-01-15T04:28:39.444Z,44.23
2018-01-15T04:29:39.446Z,44.51
2018-01-15T04:30:39.443Z,45.08
2018-01-15T04:31:39.452Z,45.08
2018-01-15T04:32:39.452Z,44.99
2018-01-15T04:33:39.455Z,44.51
2018-01-15T04:34:39.456Z,44.14
2018-01-15T04:35:39.460Z,44.99
2018-01-15T04:36:39.479Z,45.27
2018-01-15T04:37:39.457Z,45.08
2018-01-15T04:38:39.465Z,45.08
2018-01-15T04:39:39.465Z,45.08
2018-01-15T04:40:39.469Z,43.66
2018-01-15T04:41:39.465Z,42.91
2018-01-15T04:42:39.472Z,42.63
2018-01-15T04:43:39.476Z,43.01
2018-01-15T04:44:39.475Z,43.19
2018-01-15T04:45:39.472Z,43.10
2018-01-15T04:46:39.474Z,41.88
2018-01-15T04:47:39.479Z,41.59
2018-01-15T04:48:39.483Z,41.24
2018-01-15T04:49:39.480Z,41.50
2018-01-15T04:50:39.482Z,42.35
2018-01-15T04:51:39.483Z,41.78
2018-01-15T04:52:39.484Z,40.74
2018-01-15T04:53:39.487Z,40.46
2018-01-15T04:54:39.489Z,41.71
2018-01-15T04:55:39.494Z,43.01
2018-01-15T04:56:39.498Z,42.82
2018-01-15T04:57:39.500Z,43.10
2018-01-15T04:58:39.502Z,42.91
2018-01-15T04:59:39.497Z,42.82
2018-01-15T05:00:39.499Z,43.66
2018-01-15T05:01:39.501Z,43.85
2018-01-15T05:02:39.502Z,44.23
2018-01-15T05:03:39.504Z,44.14
2018-01-15T05:04:39.508Z,43.85
2018-01-15T05:05:39.512Z,44.32
2018-01-15T05:06:39.515Z,44.80
2018-01-15T05:07:39.518Z,44.32
2018-01-15T05:08:39.519Z,43.85
2018-01-15T05:09:39.515Z,44.04
2018-01-15T05:10:39.517Z,44.89
2018-01-15T05:11:39.525Z,45.08
2018-01-15T05:12:39.522Z,45.55
2018-01-15T05:13:39.522Z,45.46
2018-01-15T05:14:39.529Z,46.97
2018-01-15T05:15:39.526Z,47.91
2018-01-15T05:16:39.533Z,48.38
2018-01-15T05:17:39.532Z,49.04
2018-01-15T05:18:39.536Z,49.51
2018-01-15T05:19:39.539Z,50.74
2018-01-15T05:20:39.533Z,51.40
2018-01-15T05:21:39.541Z,51.50
2018-01-15T05:22:39.538Z,52.06
2018-01-15T05:23:39.546Z,52.34
2018-01-15T05:24:39.541Z,52.25
2018-01-15T05:25:39.547Z,51.78
2018-01-15T05:26:39.545Z,50.84
2018-01-15T05:27:39.549Z,50.58
2018-01-15T05:28:39.549Z,50.58
2018-01-15T05:29:39.558Z,49.35
2018-01-15T05:30:39.558Z,49.44
2018-01-15T05:31:39.554Z,49.26
2018-01-15T05:32:39.560Z,48.69
2018-01-15T05:33:39.563Z,48.22
2018-01-15T05:34:39.564Z,48.32
2018-01-15T05:35:39.567Z,48.41
2018-01-15T05:36:39.569Z,48.41
2018-01-15T05:37:39.564Z,48.60
2018-01-15T05:38:39.573Z,48.32
2018-01-15T05:39:39.567Z,48.00
2018-01-15T05:40:39.576Z,48.10
2018-01-15T05:41:39.572Z,47.53
2018-01-15T05:42:39.581Z,48.29
2018-01-15T05:43:39.582Z,48.57
2018-01-15T05:44:39.584Z,50.08
2018-01-15T05:45:39.585Z,50.27
2018-01-15T05:46:39.582Z,50.27
2018-01-15T05:47:39.590Z,50.65
2018-01-15T05:48:39.590Z,51.12
2018-01-15T05:49:39.587Z,51.68
2018-01-15T05:50:39.596Z,51.68
2018-01-15T05:51:39.599Z,51.97
2018-01-15T05:52:39.604Z,52.25
2018-01-15T05:53:39.603Z,52.44
2018-01-15T05:54:39.597Z,53.00
2018-01-15T05:55:39.599Z,53.19
2018-01-15T05:56:39.607Z,53.66
2018-01-15T05:57:39.610Z,54.04
2018-01-15T05:58:39.611Z,54.14
2018-01-15T05:59:39.608Z,53.85
2018-01-15T06:00:39.609Z,52.25
2018-01-15T06:01:39.617Z,51.03
2018-01-15T06:02:39.616Z,50.93
2018-01-15T06:03:39.622Z,50.84
2018-01-15T06:04:39.618Z,50.84
2018-01-15T06:05:39.620Z,50.55
2018-01-15T06:06:39.627Z,50.65
2018-01-15T06:07:39.631Z,49.99
2018-01-15T06:08:39.631Z,50.08
2018-01-15T06:09:39.633Z,50.36
2018-01-15T06:10:39.636Z,50.84
2018-01-15T06:11:39.636Z,50.55
2018-01-15T06:12:39.638Z,50.74
2018-01-15T06:13:39.640Z,51.03
2018-01-15T06:14:39.638Z,50.74
2018-01-15T06:15:39.646Z,50.74
2018-01-15T06:16:39.646Z,50.55
2018-01-15T06:17:39.648Z,50.84
2018-01-15T06:18:39.654Z,50.58
2018-01-15T06:19:39.650Z,50.20
2018-01-15T06:20:39.650Z,49.35
2018-01-15T06:21:39.658Z,49.07
2018-01-15T06:22:39.658Z,48.32
2018-01-15T06:23:39.657Z,47.94
2018-01-15T06:24:39.658Z,47.94
2018-01-15T06:25:39.665Z,47.84
2018-01-15T06:26:39.666Z,47.94
2018-01-15T06:27:39.668Z,48.13
2018-01-15T06:28:39.672Z,48.60
2018-01-15T06:29:39.675Z,48.79
2018-01-15T06:30:39.674Z,49.63
2018-01-15T06:31:39.677Z,50.29
2018-01-15T06:32:39.678Z,50.39
2018-01-15T06:33:39.675Z,50.20
2018-01-15T06:34:39.682Z,50.20
2018-01-15T06:35:39.678Z,50.55
2018-01-15T06:36:39.690Z,51.05
2018-01-15T06:37:39.688Z,49.99
2018-01-15T06:38:39.685Z,50.27
2018-01-15T06:39:39.687Z,50.84
2018-01-15T06:40:39.695Z,50.55
2018-01-15T06:41:39.696Z,50.93
2018-01-15T06:42:39.699Z,51.40
2018-01-15T06:43:39.701Z,51.78
2018-01-15T06:44:39.697Z,50.84
2018-01-15T06:45:39.699Z,49.80
2018-01-15T06:46:39.707Z,49.89
2018-01-15T06:47:39.707Z,50.93
2018-01-15T06:48:39.712Z,50.74
2018-01-15T06:49:39.713Z,51.03
2018-01-15T06:50:39.715Z,51.50
2018-01-15T06:51:39.718Z,51.21
2018-01-15T06:52:39.719Z,52.06
2018-01-15T06:53:39.724Z,52.34
2018-01-15T06:54:39.726Z,52.53
2018-01-15T06:55:39.720Z,52.34
2018-01-15T06:56:39.723Z,52.15
2018-01-15T06:57:39.726Z,52.25
2018-01-15T06:58:39.733Z,52.06
2018-01-15T06:59:39.732Z,52.44
2018-01-15T07:00:39.736Z,52.81
2018-01-15T07:01:39.740Z,52.34
2018-01-15T07:02:39.740Z,51.97
2018-01-15T07:03:39.738Z,51.68
2018-01-15T07:04:39.740Z,49.99
2018-01-15T07:05:39.744Z,50.27
2018-01-15T07:06:39.745Z,50.08
2018-01-15T07:07:39.746Z,50.93
2018-01-15T07:08:39.755Z,50.18
2018-01-15T07:09:39.750Z,50.27
2018-01-15T07:10:39.754Z,50.84
2018-01-15T07:11:39.757Z,50.65
2018-01-15T07:12:39.760Z,50.93
2018-01-15T07:13:39.759Z,50.93
2018-01-15T07:14:39.761Z,51.03
2018-01-15T07:15:39.763Z,50.93
2018-01-15T07:16:39.764Z,51.78
2018-01-15T07:17:39.772Z,51.50
2018-01-15T07:18:39.768Z,51.97
2018-01-15T07:19:39.776Z,52.34
2018-01-15T07:20:39.772Z,52.44
2018-01-15T07:21:39.780Z,53.19
2018-01-15T07:22:39.777Z,53.19
2018-01-15T07:23:39.785Z,52.81
2018-01-15T07:24:39.785Z,53.19
2018-01-15T07:25:39.788Z,53.19
2018-01-15T07:26:39.784Z,52.81
2018-01-15T07:27:39.787Z,52.44
2018-01-15T07:28:39.797Z,52.81
2018-01-15T07:29:39.798Z,51.97
2018-01-15T07:30:39.798Z,51.78
2018-01-15T07:31:39.794Z,50.65
2018-01-15T07:32:39.795Z,50.27
2018-01-15T07:33:39.849Z,50.65
2018-01-15T07:34:39.807Z,50.55
2018-01-15T07:35:39.809Z,50.84
2018-01-15T07:36:39.805Z,51.68
2018-01-15T07:37:39.813Z,51.40
2018-01-15T07:38:39.818Z,51.68
2018-01-15T07:39:39.816Z,51.21
2018-01-15T07:40:39.818Z,51.87
2018-01-15T07:41:39.821Z,51.50
2018-01-15T07:42:39.817Z,51.97
2018-01-15T07:43:39.826Z,52.62
2018-01-15T07:44:39.870Z,52.72
2018-01-15T07:45:39.822Z,52.62
2018-01-15T07:46:39.827Z,52.44
2018-01-15T07:47:39.830Z,52.44
2018-01-15T07:48:39.835Z,52.44
2018-01-15T07:49:39.836Z,52.62
2018-01-15T07:50:39.835Z,52.44
2018-01-15T07:51:39.836Z,52.44
2018-01-15T07:52:39.845Z,53.29
2018-01-15T07:53:39.846Z,53.29
2018-01-15T07:54:39.848Z,53.00
2018-01-15T07:55:39.856Z,53.38
2018-01-15T07:56:39.857Z,53.19
2018-01-15T07:57:39.854Z,53.38
2018-01-15T07:58:39.858Z,53.19
2018-01-15T07:59:39.858Z,53.29
2018-01-15T08:00:39.860Z,53.19
2018-01-15T08:01:39.857Z,53.10
2018-01-15T08:02:39.862Z,53.66
2018-01-15T08:03:39.862Z,53.66
2018-01-15T08:04:39.863Z,54.23
2018-01-15T08:05:39.872Z,53.76
2018-01-15T08:06:39.869Z,53.76
2018-01-15T08:07:39.877Z,53.76
2018-01-15T08:08:39.879Z,53.47
2018-01-15T08:09:39.875Z,53.10
2018-01-15T08:10:39.877Z,53.19
2018-01-15T08:11:39.884Z,53.19
2018-01-15T08:12:39.881Z,53.66
2018-01-15T08:13:39.882Z,53.47
2018-01-15T08:14:39.885Z,52.44
2018-01-15T08:15:39.894Z,51.40
2018-01-15T08:16:39.891Z,50.93
2018-01-15T08:17:39.891Z,51.12
2018-01-15T08:18:39.935Z,51.14
2018-01-15T08:19:39.901Z,50.27
2018-01-15T08:20:39.898Z,50.10
2018-01-15T08:21:39.899Z,50.08
2018-01-15T08:22:39.909Z,50.27
2018-01-15T08:23:39.906Z,50.29
2018-01-15T08:24:39.907Z,50.08
2018-01-15T08:25:39.910Z,49.26
2018-01-15T08:26:39.916Z,49.54
2018-01-15T08:27:39.914Z,49.23
2018-01-15T08:28:39.918Z,49.32
2018-01-15T08:29:39.923Z,49.61
2018-01-15T08:30:39.925Z,49.70
2018-01-15T08:31:39.924Z,50.55
2018-01-15T08:32:39.927Z,50.08
2018-01-15T08:33:39.957Z,50.08
2018-01-15T08:34:39.939Z,48.29
2018-01-15T08:35:39.932Z,47.72
2018-01-15T08:36:39.933Z,47.34
2018-01-15T08:37:39.942Z,48.66
2018-01-15T08:38:39.943Z,49.35
2018-01-15T08:39:39.947Z,49.35
2018-01-15T08:40:39.949Z,50.10
2018-01-15T08:41:39.951Z,50.67
2018-01-15T08:42:39.953Z,50.86
2018-01-15T08:43:39.956Z,51.71
2018-01-15T08:44:39.961Z,51.62
2018-01-15T08:45:39.959Z,51.62
2018-01-15T08:46:39.957Z,50.86
2018-01-15T08:47:39.967Z,50.70
2018-01-15T08:48:39.964Z,49.76
2018-01-15T08:49:39.970Z,49.38
2018-01-15T08:50:39.973Z,48.62
2018-01-15T08:51:39.976Z,49.38
2018-01-15T08:52:39.970Z,49.38
2018-01-15T08:53:39.975Z,48.52
2018-01-15T08:54:39.977Z,48.24
2018-01-15T08:55:39.992Z,48.15
2018-01-15T08:56:39.982Z,46.83
2018-01-15T08:57:39.985Z,45.13
2018-01-15T08:58:39.994Z,45.60
2018-01-15T08:59:39.997Z,45.13
2018-01-15T09:00:40.000Z,46.26
2018-01-15T09:01:39.997Z,46.83
2018-01-15T09:02:40.007Z,45.50
2018-01-15T09:03:40.010Z,45.32
2018-01-15T09:04:40.007Z,45.32
2018-01-15T09:05:40.016Z,43.83
2018-01-15T09:06:40.020Z,44.30
2018-01-15T09:07:40.022Z,44.02
2018-01-15T09:08:40.024Z,43.26
2018-01-15T09:09:40.022Z,43.07
2018-01-15T09:10:40.032Z,42.60
2018-01-15T09:11:40.036Z,42.79
2018-01-15T09:12:40.033Z,42.88
2018-01-15T09:13:40.037Z,42.41
2018-01-15T09:14:40.046Z,41.09
2018-01-15T09:15:40.048Z,40.52
2018-01-15T09:16:40.046Z,41.85
2018-01-15T09:17:40.050Z,41.75
2018-01-15T09:18:40.062Z,41.94
2018-01-15T09:19:40.062Z,43.16
2018-01-15T09:20:40.068Z,43.54
2018-01-15T09:21:40.071Z,42.22
2018-01-15T09:22:40.099Z,40.33
2018-01-15T09:23:40.077Z,40.33
2018-01-15T09:24:40.081Z,40.05
2018-01-15T09:25:40.080Z,40.24
2018-01-15T09:26:40.085Z,40.99
2018-01-15T09:27:40.093Z,41.56
2018-01-15T09:28:40.096Z,42.03
2018-01-15T09:29:40.106Z,42.32
2018-01-15T09:30:40.107Z,41.85
2018-01-15T09:31:40.109Z,41.66
2018-01-15T09:32:40.106Z,41.28
2018-01-15T09:33:40.112Z,41.85
2018-01-15T09:34:40.116Z,40.99
2018-01-15T09:35:40.119Z,40.90
2018-01-15T09:36:40.132Z,40.71
2018-01-15T09:37:40.133Z,40.61
2018-01-15T09:38:40.138Z,41.37
2018-01-15T09:39:40.134Z,42.88
2018-01-15T09:40:40.140Z,42.90
2018-01-15T09:41:40.143Z,43.09
2018-01-15T09:42:40.148Z,43.85
2018-01-15T09:43:40.152Z,43.76
2018-01-15T09:44:40.159Z,42.34
2018-01-15T09:45:40.165Z,41.86
2018-01-15T09:46:40.165Z,43.00
2018-01-15T09:47:40.170Z,42.81
2018-01-15T09:48:40.172Z,43.00
2018-01-15T09:49:40.181Z,41.96
2018-01-15T09:50:40.186Z,41.96
2018-01-15T09:51:40.186Z,42.05
2018-01-15T09:52:40.190Z,40.07
2018-01-15T09:53:40.200Z,40.35
2018-01-15T09:54:40.200Z,41.02
2018-01-15T09:55:40.205Z,41.30
2018-01-15T09:56:40.213Z,40.92
2018-01-15T09:57:40.219Z,41.11
2018-01-15T09:58:40.222Z,43.02
2018-01-15T09:59:40.223Z,39.71
2018-01-15T10:00:40.233Z,38.95
2018-01-15T10:01:40.232Z,38.86
2018-01-15T10:02:40.237Z,40.56
2018-01-15T10:03:40.248Z,41.60
2018-01-15T10:04:40.249Z,38.98
2018-01-15T10:05:40.250Z,37.74
2018-01-15T10:06:40.263Z,36.71
2018-01-15T10:07:40.264Z,37.74
2018-01-15T10:08:40.266Z,38.50
2018-01-15T10:09:40.272Z,37.27
2018-01-15T10:10:40.283Z,34.91
2018-01-15T10:11:40.290Z,33.77
2018-01-15T10:12:40.288Z,33.87
2018-01-15T10:13:40.300Z,34.53
2018-01-15T10:14:40.300Z,37.18
2018-01-15T10:15:40.308Z,37.84
2018-01-15T10:16:40.311Z,37.37
2018-01-15T10:17:40.323Z,36.82
2018-01-15T10:18:40.325Z,37.76
2018-01-15T10:19:40.332Z,37.10
2018-01-15T10:20:40.337Z,36.61
2018-01-15T10:21:40.344Z,37.18
2018-01-15T10:22:40.355Z,38.88
2018-01-15T10:23:40.361Z,38.90
2018-01-15T10:24:40.370Z,37.76
2018-01-15T10:25:40.372Z,37.10
2018-01-15T10:26:40.384Z,37.76
2018-01-15T10:27:40.386Z,37.76
2018-01-15T10:28:40.397Z,36.91
2018-01-15T10:29:40.402Z,36.25
2018-01-15T10:30:40.404Z,35.96
2018-01-15T10:31:40.414Z,36.54
2018-01-15T10:32:40.461Z,36.55
2018-01-15T10:33:40.433Z,38.35
2018-01-15T10:34:40.430Z,40.72
2018-01-15T10:35:40.438Z,37.86
2018-01-15T10:36:40.446Z,38.05
2018-01-15T10:37:40.454Z,36.44
2018-01-15T10:38:40.464Z,37.01
2018-01-15T10:39:40.468Z,36.80
2018-01-15T10:40:40.475Z,37.93
2018-01-15T10:41:40.482Z,38.31
2018-01-15T10:42:40.493Z,39.36
2018-01-15T10:43:40.504Z,40.51
2018-01-15T10:44:40.510Z,41.63
2018-01-15T10:45:40.513Z,40.13
2018-01-15T10:46:40.520Z,39.26
2018-01-15T10:47:40.530Z,38.71
2018-01-15T10:48:40.538Z,38.54
2018-01-15T10:49:40.549Z,39.32
2018-01-15T10:50:40.553Z,38.28
2018-01-15T10:51:40.565Z,36.47
2018-01-15T10:52:40.605Z,34.69
2018-01-15T10:53:40.575Z,32.70
2018-01-15T10:54:40.583Z,31.10
2018-01-15T10:55:40.595Z,30.55
2018-01-15T10:56:40.599Z,29.89
2018-01-15T10:57:40.613Z,28.85
2018-01-15T10:58:40.617Z,28.67
2018-01-15T10:59:40.630Z,27.62
2018-01-15T11:00:40.634Z,27.81
2018-01-15T11:01:40.645Z,27.15
2018-01-15T11:02:40.652Z,25.63
2018-01-15T11:03:40.663Z,25.25
2018-01-15T11:04:40.673Z,26.20
2018-01-15T11:05:40.677Z,26.57
2018-01-15T11:06:40.685Z,26.48
2018-01-15T11:07:40.697Z,26.67
2018-01-15T11:08:40.703Z,26.10
2018-01-15T11:09:40.720Z,27.51
2018-01-15T11:10:40.724Z,29.21
2018-01-15T11:11:40.739Z,30.63
2018-01-15T11:12:40.742Z,31.28
2018-01-15T11:13:40.756Z,32.21
2018-01-15T11:14:40.760Z,33.54
2018-01-15T11:15:40.782Z,32.68
2018-01-15T11:16:40.780Z,32.21
2018-01-15T11:17:40.794Z,33.14
2018-01-15T11:18:40.802Z,33.62
2018-01-15T11:19:40.810Z,34.17
2018-01-15T11:20:40.820Z,34.55
2018-01-15T11:21:40.829Z,35.13
2018-01-15T11:22:40.842Z,35.13
2018-01-15T11:23:40.850Z,35.72
2018-01-15T11:24:40.863Z,34.77
2018-01-15T11:25:40.866Z,34.77
2018-01-15T11:26:40.875Z,35.53
2018-01-15T11:27:40.890Z,37.04
2018-01-15T11:28:40.893Z,36.66
2018-01-15T11:29:40.908Z,37.80
2018-01-15T11:30:40.919Z,36.11
2018-01-15T11:31:40.929Z,35.45
2018-01-15T11:32:40.976Z,32.43
2018-01-15T11:33:40.942Z,32.14
2018-01-15T11:34:40.957Z,32.89
2018-01-15T11:35:40.967Z,34.78
2018-01-15T11:36:40.978Z,34.78
2018-01-15T11:37:40.989Z,32.70
2018-01-15T11:38:40.997Z,31.75
2018-01-15T11:39:41.007Z,31.66
2018-01-15T11:40:41.015Z,31.48
2018-01-15T11:41:41.024Z,30.65
2018-01-15T11:42:41.029Z,30.83
2018-01-15T11:43:41.046Z,30.08
2018-01-15T11:44:41.070Z,29.13
2018-01-15T11:45:41.064Z,30.63
2018-01-15T11:46:41.070Z,30.33
2018-01-15T11:47:41.082Z,31.18
2018-01-15T11:48:41.092Z,30.80
2018-01-15T11:49:41.101Z,29.86
2018-01-15T11:50:41.113Z,31.07
2018-01-15T11:51:41.121Z,32.40
2018-01-15T11:52:41.136Z,31.91
2018-01-15T11:53:41.168Z,34.28
2018-01-15T11:54:41.152Z,34.45
2018-01-15T11:55:41.168Z,35.98
2018-01-15T11:56:41.173Z,36.08
2018-01-15T11:57:41.188Z,36.25
2018-01-15T11:58:41.194Z,35.51
2018-01-15T11:59:41.206Z,36.19
2018-01-15T12:00:41.218Z,35.98
2018-01-15T12:01:41.227Z,34.75
2018-01-15T12:02:41.236Z,35.22
2018-01-15T12:03:41.245Z,36.93
2018-01-15T12:04:41.256Z,35.98
2018-01-15T12:05:41.265Z,38.05
2018-01-15T12:06:41.277Z,39.09
2018-01-15T12:07:41.289Z,39.20
2018-01-15T12:08:41.343Z,38.16
2018-01-15T12:09:41.311Z,35.89
2018-01-15T12:10:41.325Z,34.19
2018-01-15T12:11:41.333Z,34.38
2018-01-15T12:12:41.336Z,34.47
2018-01-15T12:13:41.354Z,36.17
2018-01-15T12:14:41.367Z,36.17
2018-01-15T12:15:41.370Z,36.65
2018-01-15T12:16:41.384Z,36.74
2018-01-15T12:17:41.388Z,38.14
2018-01-15T12:18:41.434Z,38.81
2018-01-15T12:19:41.411Z,39.07
2018-01-15T12:20:41.420Z,39.54
2018-01-15T12:21:41.431Z,41.15
2018-01-15T12:22:41.443Z,42.10
2018-01-15T12:23:41.446Z,44.09
2018-01-15T12:24:41.455Z,43.42
2018-01-15T12:25:41.471Z,42.19
2018-01-15T12:26:41.472Z,42.19
2018-01-15T12:27:41.483Z,43.23
2018-01-15T12:28:41.490Z,43.80
2018-01-15T12:29:41.501Z,44.48
2018-01-15T12:30:41.521Z,44.01
2018-01-15T12:31:41.519Z,42.88
2018-01-15T12:32:41.526Z,42.43
2018-01-15T12:33:41.542Z,40.64
2018-01-15T12:34:41.550Z,40.00
2018-01-15T12:35:41.559Z,38.96
2018-01-15T12:36:41.570Z,36.11
2018-01-15T12:37:41.573Z,36.40
2018-01-15T12:38:41.581Z,36.61
2018-01-15T12:39:41.591Z,35.66
2018-01-15T12:40:41.603Z,33.76
2018-01-15T12:41:41.615Z,32.53
2018-01-15T12:42:41.624Z,31.75
2018-01-15T12:43:41.631Z,31.55
2018-01-15T12:44:41.647Z,34.66
2018-01-15T12:45:41.657Z,37.19
2018-01-15T12:46:41.663Z,37.67
2018-01-15T12:47:41.669Z,37.95
2018-01-15T12:48:41.681Z,39.26
2018-01-15T12:49:41.687Z,38.98
2018-01-15T12:50:41.696Z,38.88
2018-01-15T12:51:41.706Z,37.86
2018-01-15T12:52:41.714Z,38.24